createdAt,value
2018-05-25T00:00:28.479Z,15.67
2018-05-25T00:03:03.244Z,15.97
2018-05-25T00:05:38.525Z,15.00
2018-05-25T00:08:13.158Z,13.10
2018-05-25T00:10:48.562Z,11.73
2018-05-25T00:13:23.737Z,10.63
2018-05-25T00:15:58.466Z,10.90
2018-05-25T00:18:33.822Z,11.07
2018-05-25T00:21:08.351Z,10.13
2018-05-25T00:23:43.709Z,9.73
2018-05-25T00:26:18.397Z,8.53
2018-05-25T00:28:54.013Z,8.80
2018-05-25T00:31:28.783Z,7.87
2018-05-25T00:34:04.064Z,7.93
2018-05-25T00:36:39.444Z,7.40
2018-05-25T00:39:14.597Z,6.50
2018-05-25T00:41:49.729Z,6.40
2018-05-25T00:44:24.114Z,6.67
2018-05-25T00:46:59.416Z,6.73
2018-05-25T00:49:34.513Z,6.23
2018-05-25T00:52:09.874Z,6.17
2018-05-25T00:54:45.517Z,5.68
2018-05-25T00:57:20.768Z,6.40
2018-05-25T00:59:56.384Z,5.40
2018-05-25T01:02:31.389Z,5.77
2018-05-25T01:05:06.501Z,5.90
2018-05-25T01:07:41.775Z,5.57
2018-05-25T01:10:16.569Z,5.50
2018-05-25T01:12:51.721Z,5.27
2018-05-25T01:15:26.513Z,5.20
2018-05-25T01:18:01.657Z,5.10
2018-05-25T01:20:37.201Z,5.37
2018-05-25T01:23:12.537Z,5.40
2018-05-25T01:25:47.797Z,5.55
2018-05-25T01:28:22.776Z,5.17
2018-05-25T01:30:57.660Z,5.12
2018-05-25T01:33:32.648Z,5.10
2018-05-25T01:36:07.641Z,5.00
2018-05-25T01:38:43.065Z,4.70
2018-05-25T01:41:18.538Z,5.30
2018-05-25T01:43:54.070Z,5.70
2018-05-25T01:46:28.702Z,5.13
2018-05-25T01:49:03.205Z,5.43
2018-05-25T01:51:37.829Z,5.60
2018-05-25T01:54:12.638Z,5.90
2018-05-25T01:56:47.921Z,5.50
2018-05-25T01:59:23.676Z,5.77
2018-05-25T02:01:58.850Z,5.78
2018-05-25T02:04:33.257Z,6.37
2018-05-25T02:07:08.061Z,5.17
2018-05-25T02:09:43.364Z,5.40
2018-05-25T02:12:18.657Z,6.00
2018-05-25T02:14:53.761Z,5.30
2018-05-25T02:17:28.187Z,6.10
2018-05-25T02:20:03.029Z,6.40
2018-05-25T02:22:38.309Z,5.87
2018-05-25T02:25:13.754Z,4.87
2018-05-25T02:27:48.977Z,5.73
2018-05-25T02:30:23.897Z,6.37
2018-05-25T02:32:59.632Z,5.90
2018-05-25T02:35:34.663Z,6.33
2018-05-25T02:38:09.773Z,5.20
2018-05-25T02:40:45.208Z,5.60
2018-05-25T02:43:20.192Z,7.07
2018-05-25T02:45:55.934Z,5.15
2018-05-25T02:48:30.975Z,5.40
2018-05-25T02:51:05.157Z,5.70
2018-05-25T02:53:40.153Z,5.93
2018-05-25T02:56:16.130Z,6.17
2018-05-25T02:58:51.201Z,4.97
2018-05-25T03:01:26.269Z,5.93
2018-05-25T03:04:01.156Z,5.70
2018-05-25T03:06:36.757Z,6.00
2018-05-25T03:09:11.872Z,5.97
2018-05-25T03:11:46.878Z,5.53
2018-05-25T03:14:22.442Z,5.53
2018-05-25T03:16:57.310Z,6.30
2018-05-25T03:19:32.853Z,6.10
2018-05-25T03:22:07.849Z,6.27
2018-05-25T03:24:43.318Z,6.80
2018-05-25T03:27:18.781Z,5.70
2018-05-25T03:29:53.348Z,5.87
2018-05-25T03:32:27.926Z,6.20
2018-05-25T03:35:03.319Z,5.47
2018-05-25T03:37:38.202Z,5.50
2018-05-25T03:40:13.430Z,7.33
2018-05-25T03:42:48.171Z,5.65
2018-05-25T03:45:23.878Z,6.30
2018-05-25T03:47:59.150Z,6.40
2018-05-25T03:50:34.405Z,6.40
2018-05-25T03:53:09.813Z,5.35
2018-05-25T03:55:44.989Z,5.93
2018-05-25T03:58:19.575Z,6.33
2018-05-25T04:01:05.745Z,5.67
2018-05-25T04:03:40.203Z,5.70
2018-05-25T04:06:15.208Z,5.57
2018-05-25T04:08:49.913Z,5.63
2018-05-25T04:11:25.136Z,6.80
2018-05-25T04:14:00.457Z,6.07
2018-05-25T04:16:35.971Z,7.17
2018-05-25T04:19:10.963Z,6.30
2018-05-25T04:21:46.246Z,6.10
2018-05-25T04:24:21.123Z,5.70
2018-05-25T04:26:56.366Z,6.30
2018-05-25T04:29:31.038Z,6.07
2018-05-25T04:32:06.001Z,5.90
2018-05-25T04:34:40.241Z,6.10
2018-05-25T04:37:15.914Z,6.50
2018-05-25T04:39:50.462Z,6.25
2018-05-25T04:42:26.026Z,6.35
2018-05-25T04:45:01.144Z,6.10
2018-05-25T04:47:36.073Z,6.13
2018-05-25T04:50:11.293Z,5.50
2018-05-25T04:52:46.947Z,6.37
2018-05-25T04:55:21.843Z,6.80
2018-05-25T04:57:57.310Z,5.70
2018-05-25T05:00:32.192Z,5.80
2018-05-25T05:03:07.179Z,6.70
2018-05-25T05:05:42.526Z,6.87
2018-05-25T05:08:17.458Z,6.37
2018-05-25T05:10:52.976Z,6.47
2018-05-25T05:13:27.969Z,5.80
2018-05-25T05:16:03.092Z,6.40
2018-05-25T05:18:38.206Z,7.13
2018-05-25T05:21:13.313Z,6.80
2018-05-25T05:23:48.387Z,6.18
2018-05-25T05:26:23.157Z,5.70
2018-05-25T05:28:58.636Z,6.07
2018-05-25T05:31:33.296Z,5.93
2018-05-25T05:34:08.734Z,6.23
2018-05-25T05:36:44.049Z,6.82
2018-05-25T05:39:19.193Z,6.20
2018-05-25T05:41:54.169Z,6.50
2018-05-25T05:44:29.181Z,7.80
2018-05-25T05:47:04.086Z,6.47
2018-05-25T05:49:38.481Z,6.53
2018-05-25T05:52:13.806Z,7.50
2018-05-25T05:54:49.305Z,6.40
2018-05-25T05:57:24.231Z,6.70
2018-05-25T05:59:59.134Z,7.37
2018-05-25T06:02:34.269Z,6.53
2018-05-25T06:05:09.588Z,6.93
2018-05-25T06:07:44.393Z,7.10
2018-05-25T06:10:19.573Z,6.57
2018-05-25T06:12:54.442Z,6.70
2018-05-25T06:15:29.772Z,7.30
2018-05-25T06:18:04.326Z,6.50
2018-05-25T06:20:39.385Z,6.30
2018-05-25T06:23:14.509Z,6.70
2018-05-25T06:25:50.153Z,6.70
2018-05-25T06:28:25.189Z,5.73
2018-05-25T06:31:00.197Z,7.40
2018-05-25T06:33:35.662Z,5.90
2018-05-25T06:36:10.552Z,7.50
2018-05-25T06:38:45.582Z,6.20
2018-05-25T06:41:20.398Z,7.40
2018-05-25T06:43:55.502Z,6.67
2018-05-25T06:46:29.913Z,7.17
2018-05-25T06:49:04.546Z,7.37
2018-05-25T06:51:39.831Z,7.10
2018-05-25T06:54:15.394Z,7.03
2018-05-25T06:56:50.345Z,7.10
2018-05-25T06:59:25.034Z,7.93
2018-05-25T07:01:59.748Z,8.10
2018-05-25T07:04:35.237Z,7.40
2018-05-25T07:07:10.362Z,7.83
2018-05-25T07:09:45.770Z,7.33
2018-05-25T07:12:21.422Z,7.32
2018-05-25T07:14:56.664Z,8.13
2018-05-25T07:17:31.357Z,7.53
2018-05-25T07:20:06.557Z,7.13
2018-05-25T07:22:42.757Z,7.30
2018-05-25T07:25:17.842Z,7.73
2018-05-25T07:27:52.682Z,7.62
2018-05-25T07:30:28.037Z,6.97
2018-05-25T07:33:02.210Z,7.70
2018-05-25T07:35:36.913Z,7.50
2018-05-25T07:38:11.670Z,7.50
2018-05-25T07:40:47.043Z,7.40
2018-05-25T07:43:22.529Z,7.60
2018-05-25T07:45:57.717Z,7.43
2018-05-25T07:48:32.653Z,8.07
2018-05-25T07:51:07.805Z,7.47
2018-05-25T07:53:42.998Z,7.40
2018-05-25T07:56:19.138Z,7.37
2018-05-25T07:58:54.533Z,7.32
2018-05-25T08:01:29.574Z,7.00
2018-05-25T08:04:04.610Z,7.47
2018-05-25T08:06:39.693Z,6.73
2018-05-25T08:09:14.186Z,7.30
2018-05-25T08:11:49.837Z,6.90
2018-05-25T08:14:24.597Z,7.23
2018-05-25T08:16:59.662Z,7.13
2018-05-25T08:19:34.873Z,8.07
2018-05-25T08:22:09.603Z,6.70
2018-05-25T08:24:44.710Z,7.00
2018-05-25T08:27:20.855Z,6.93
2018-05-25T08:29:56.495Z,6.72
2018-05-25T08:32:31.651Z,7.10
2018-05-25T08:35:07.002Z,6.77
2018-05-25T08:37:42.998Z,6.10
2018-05-25T08:40:17.698Z,7.23
2018-05-25T08:42:53.219Z,6.87
2018-05-25T08:45:28.818Z,7.60
2018-05-25T08:48:03.811Z,7.60
2018-05-25T08:50:39.149Z,7.00
2018-05-25T08:53:13.404Z,6.10
2018-05-25T08:55:48.094Z,6.40
2018-05-25T08:58:22.827Z,7.30
2018-05-25T09:00:58.442Z,5.80
2018-05-25T09:03:33.818Z,6.70
2018-05-25T09:06:08.749Z,6.53
2018-05-25T09:08:44.166Z,7.97
2018-05-25T09:11:19.705Z,6.43
2018-05-25T09:13:54.893Z,6.60
2018-05-25T09:16:29.810Z,6.50
2018-05-25T09:19:04.790Z,6.50
2018-05-25T09:21:39.790Z,6.67
2018-05-25T09:24:14.813Z,6.80
2018-05-25T09:26:50.041Z,7.63
2018-05-25T09:29:24.854Z,6.70
2018-05-25T09:32:00.522Z,7.55
2018-05-25T09:34:35.038Z,7.60
2018-05-25T09:37:09.905Z,7.10
2018-05-25T09:39:45.129Z,7.30
2018-05-25T09:42:20.783Z,6.87
2018-05-25T09:44:56.209Z,7.73
2018-05-25T09:47:31.042Z,7.13
2018-05-25T09:50:06.002Z,6.47
2018-05-25T09:52:41.178Z,6.70
2018-05-25T09:55:16.430Z,8.07
2018-05-25T09:57:56.868Z,6.97
2018-05-25T10:00:31.940Z,6.50
2018-05-25T10:03:06.367Z,7.43
2018-05-25T10:05:41.393Z,6.77
2018-05-25T10:08:16.856Z,7.73
2018-05-25T10:10:52.194Z,7.27
2018-05-25T10:13:27.221Z,7.00
2018-05-25T10:16:02.209Z,6.93
2018-05-25T10:18:37.341Z,7.70
2018-05-25T10:21:12.345Z,7.23
2018-05-25T10:23:47.496Z,7.00
2018-05-25T10:26:21.990Z,7.60
2018-05-25T10:28:57.127Z,7.57
2018-05-25T10:31:32.056Z,6.60
2018-05-25T10:34:06.706Z,6.83
2018-05-25T10:36:43.097Z,7.50
2018-05-25T10:39:18.295Z,7.30
2018-05-25T10:41:53.173Z,7.45
2018-05-25T10:44:27.910Z,8.50
2018-05-25T10:47:03.112Z,7.63
2018-05-25T10:49:38.150Z,7.27
2018-05-25T10:52:13.630Z,6.00
2018-05-25T10:54:47.902Z,6.77
2018-05-25T10:57:23.179Z,6.60
2018-05-25T10:59:58.337Z,6.43
2018-05-25T11:02:33.181Z,7.40
2018-05-25T11:05:08.541Z,6.33
2018-05-25T11:07:43.594Z,5.97
2018-05-25T11:10:19.201Z,6.20
2018-05-25T11:12:54.585Z,6.13
2018-05-25T11:15:29.970Z,6.30
2018-05-25T11:18:04.581Z,6.40
2018-05-25T11:20:40.225Z,6.53
2018-05-25T11:23:15.225Z,5.90
2018-05-25T11:25:50.433Z,5.93
2018-05-25T11:28:25.441Z,5.90
2018-05-25T11:31:00.283Z,6.00
2018-05-25T11:33:35.233Z,6.00
2018-05-25T11:36:09.802Z,6.13
2018-05-25T11:38:45.377Z,6.10
2018-05-25T11:41:20.217Z,6.30
2018-05-25T11:43:55.336Z,5.03
2018-05-25T11:46:30.474Z,5.60
2018-05-25T11:49:05.658Z,4.57
2018-05-25T11:51:41.282Z,5.50
2018-05-25T11:54:16.126Z,5.80
2018-05-25T11:56:51.333Z,5.40
2018-05-25T11:59:26.425Z,5.80
2018-05-25T12:02:01.561Z,5.97
2018-05-25T12:04:36.335Z,6.43
2018-05-25T12:07:11.333Z,3.60
2018-05-25T12:09:46.393Z,3.90
2018-05-25T12:12:21.223Z,4.35
2018-05-25T12:14:56.409Z,5.10
2018-05-25T12:17:31.438Z,5.17
2018-05-25T12:20:06.029Z,5.00
2018-05-25T12:22:41.403Z,5.17
2018-05-25T12:25:16.366Z,4.83
2018-05-25T12:27:51.682Z,4.90
2018-05-25T12:30:26.517Z,5.30
2018-05-25T12:33:01.643Z,5.20
2018-05-25T12:35:37.324Z,5.13
2018-05-25T12:38:12.145Z,5.30
2018-05-25T12:40:47.151Z,5.72
2018-05-25T12:43:22.266Z,5.60
2018-05-25T12:45:57.497Z,5.53
2018-05-25T12:48:32.429Z,5.00
2018-05-25T12:51:07.017Z,5.80
2018-05-25T12:53:42.366Z,6.70
2018-05-25T12:56:17.377Z,5.70
2018-05-25T12:58:52.585Z,5.72
2018-05-25T13:01:27.561Z,5.67
2018-05-25T13:04:02.637Z,6.27
2018-05-25T13:06:37.642Z,6.70
2018-05-25T13:09:12.764Z,6.60
2018-05-25T13:11:47.618Z,5.32
2018-05-25T13:14:22.646Z,5.73
2018-05-25T13:16:57.497Z,5.77
2018-05-25T13:19:32.521Z,5.63
2018-05-25T13:22:07.937Z,5.93
2018-05-25T13:24:42.960Z,5.77
2018-05-25T13:27:17.985Z,5.80
2018-05-25T13:29:52.606Z,5.70
2018-05-25T13:32:27.433Z,5.80
2018-05-25T13:35:02.431Z,5.73
2018-05-25T13:37:37.525Z,5.60
2018-05-25T13:40:12.390Z,6.40
2018-05-25T13:42:47.672Z,5.73
2018-05-25T13:45:22.942Z,6.10
2018-05-25T13:47:58.168Z,6.30
2018-05-25T13:50:33.045Z,6.87
2018-05-25T13:53:08.096Z,6.53
2018-05-25T13:55:43.854Z,5.90
2018-05-25T13:58:19.485Z,6.80
2018-05-25T14:00:54.882Z,6.37
2018-05-25T14:03:29.856Z,6.40
2018-05-25T14:06:05.205Z,6.60
2018-05-25T14:08:40.018Z,6.07
2018-05-25T14:11:15.597Z,6.30
2018-05-25T14:13:50.786Z,6.63
2018-05-25T14:16:25.946Z,6.40
2018-05-25T14:19:01.388Z,6.00
2018-05-25T14:21:36.686Z,7.10
2018-05-25T14:24:11.893Z,6.80
2018-05-25T14:26:46.817Z,7.30
2018-05-25T14:29:21.539Z,6.47
2018-05-25T14:31:56.453Z,7.18
2018-05-25T14:34:31.128Z,7.17
2018-05-25T14:37:06.681Z,6.80
2018-05-25T14:39:42.225Z,6.93
2018-05-25T14:42:17.058Z,7.20
2018-05-25T14:44:51.789Z,6.77
2018-05-25T14:47:26.686Z,7.57
2018-05-25T14:50:02.032Z,7.10
2018-05-25T14:52:37.301Z,7.53
2018-05-25T14:55:11.892Z,7.40
2018-05-25T14:57:47.030Z,7.67
2018-05-25T15:00:22.093Z,7.67
2018-05-25T15:02:56.790Z,7.18
2018-05-25T15:05:32.097Z,6.63
2018-05-25T15:08:06.946Z,7.23
2018-05-25T15:10:42.176Z,6.93
2018-05-25T15:13:17.025Z,8.13
2018-05-25T15:15:52.175Z,7.55
2018-05-25T15:18:27.010Z,7.10
2018-05-25T15:21:02.141Z,7.70
2018-05-25T15:23:37.067Z,8.10
2018-05-25T15:26:12.656Z,7.07
2018-05-25T15:28:47.084Z,6.83
2018-05-25T15:31:21.758Z,6.90
2018-05-25T15:33:56.953Z,7.47
2018-05-25T15:36:31.946Z,7.67
2018-05-25T15:39:07.259Z,7.60
2018-05-25T15:41:42.292Z,12.37
2018-05-25T15:44:17.786Z,8.40
2018-05-25T15:46:52.437Z,9.70
2018-05-25T15:49:27.078Z,7.50
2018-05-25T15:52:02.280Z,7.53
2018-05-25T15:54:37.745Z,8.33
2018-05-25T15:57:12.140Z,14.77
2018-05-25T15:59:47.725Z,10.50
2018-05-25T16:02:23.073Z,7.60
2018-05-25T16:04:58.126Z,7.78
2018-05-25T16:07:32.914Z,7.53
2018-05-25T16:10:07.794Z,7.60
2018-05-25T16:12:44.138Z,6.90
2018-05-25T16:15:18.732Z,6.70
2018-05-25T16:17:53.524Z,7.20
2018-05-25T16:20:28.871Z,7.05
2018-05-25T16:23:03.527Z,6.93
2018-05-25T16:25:38.942Z,7.20
2018-05-25T16:28:13.358Z,7.90
2018-05-25T16:30:48.119Z,6.20
2018-05-25T16:33:23.209Z,6.57
2018-05-25T16:35:58.453Z,7.43
2018-05-25T16:38:33.968Z,6.73
2018-05-25T16:41:09.174Z,6.97
2018-05-25T16:43:44.323Z,6.53
2018-05-25T16:46:18.934Z,6.63
2018-05-25T16:48:54.078Z,6.40
2018-05-25T16:51:29.021Z,7.00
2018-05-25T16:54:04.034Z,6.43
2018-05-25T16:56:39.325Z,7.00
2018-05-25T16:59:14.570Z,7.10
2018-05-25T17:01:49.969Z,6.55
2018-05-25T17:04:25.200Z,7.20
2018-05-25T17:07:00.364Z,6.30
2018-05-25T17:09:35.406Z,6.10
2018-05-25T17:12:10.851Z,5.93
2018-05-25T17:14:46.124Z,6.72
2018-05-25T17:17:21.102Z,6.90
2018-05-25T17:19:56.383Z,6.97
2018-05-25T17:22:31.868Z,6.50
2018-05-25T17:25:06.821Z,6.57
2018-05-25T17:27:41.257Z,6.50
2018-05-25T17:30:16.394Z,6.30
2018-05-25T17:32:52.185Z,6.32
2018-05-25T17:35:27.535Z,7.23
2018-05-25T17:38:02.553Z,7.07
2018-05-25T17:40:37.462Z,6.50
2018-05-25T17:43:13.045Z,6.60
2018-05-25T17:45:48.088Z,6.53
2018-05-25T17:48:23.055Z,6.63
2018-05-25T17:50:58.718Z,5.37
2018-05-25T17:53:33.516Z,6.13
2018-05-25T17:56:08.103Z,6.33
2018-05-25T17:58:43.229Z,6.53
2018-05-25T18:01:18.034Z,6.70
2018-05-25T18:03:53.243Z,6.37
2018-05-25T18:06:28.731Z,6.50
2018-05-25T18:09:05.100Z,7.07
2018-05-25T18:11:40.449Z,7.87
2018-05-25T18:14:15.603Z,6.60
2018-05-25T18:16:50.630Z,6.30
2018-05-25T18:19:25.527Z,6.33
2018-05-25T18:22:00.395Z,7.28
2018-05-25T18:24:35.743Z,7.57
2018-05-25T18:27:10.405Z,8.10
2018-05-25T18:29:45.262Z,8.60
2018-05-25T18:32:20.428Z,7.33
2018-05-25T18:34:56.030Z,7.97
2018-05-25T18:37:31.254Z,7.20
2018-05-25T18:40:06.095Z,7.13
2018-05-25T18:42:41.085Z,7.65
2018-05-25T18:45:16.619Z,7.83
2018-05-25T18:47:51.758Z,7.53
2018-05-25T18:50:27.202Z,8.10
2018-05-25T18:53:02.238Z,7.60
2018-05-25T18:55:37.500Z,7.30
2018-05-25T18:58:12.341Z,8.03
2018-05-25T19:00:47.570Z,7.60
2018-05-25T19:03:22.701Z,6.90
2018-05-25T19:05:58.146Z,7.97
2018-05-25T19:08:33.185Z,9.03
2018-05-25T19:11:08.485Z,7.73
2018-05-25T19:13:42.865Z,8.43
2018-05-25T19:16:17.993Z,9.40
2018-05-25T19:18:52.733Z,9.07
2018-05-25T19:21:27.449Z,9.20
2018-05-25T19:24:02.262Z,9.60
2018-05-25T19:26:38.165Z,9.27
2018-05-25T19:29:13.244Z,9.17
2018-05-25T19:31:48.698Z,8.80
2018-05-25T19:34:23.568Z,8.57
2018-05-25T19:36:58.670Z,8.50
2018-05-25T19:39:34.275Z,8.83
2018-05-25T19:42:09.356Z,9.17
2018-05-25T19:44:44.749Z,9.87
2018-05-25T19:47:19.409Z,9.20
2018-05-25T19:49:54.830Z,12.40
2018-05-25T19:52:29.420Z,9.00
2018-05-25T19:55:04.441Z,9.97
2018-05-25T19:57:39.536Z,9.00
2018-05-25T20:00:14.444Z,8.50
2018-05-25T20:02:49.572Z,8.30
2018-05-25T20:05:24.682Z,8.77
2018-05-25T20:08:00.508Z,8.50
2018-05-25T20:10:35.377Z,8.67
2018-05-25T20:13:10.377Z,8.17
2018-05-25T20:15:45.706Z,8.30
2018-05-25T20:18:20.725Z,7.97
2018-05-25T20:20:55.576Z,8.37
2018-05-25T20:23:30.396Z,9.77
2018-05-25T20:26:04.934Z,8.95
2018-05-25T20:28:39.626Z,9.83
2018-05-25T20:31:14.637Z,8.10
2018-05-25T20:33:49.701Z,8.70
2018-05-25T20:36:24.845Z,8.80
2018-05-25T20:38:59.732Z,7.87
2018-05-25T20:41:35.515Z,7.33
2018-05-25T20:44:09.912Z,6.90
2018-05-25T20:46:45.208Z,6.20
2018-05-25T20:49:20.585Z,6.43
2018-05-25T20:51:54.701Z,6.10
2018-05-25T20:54:29.638Z,6.03
2018-05-25T20:57:04.857Z,6.10
2018-05-25T20:59:39.826Z,5.70
2018-05-25T21:02:15.069Z,4.60
2018-05-25T21:04:50.816Z,4.70
2018-05-25T21:07:25.689Z,4.77
2018-05-25T21:10:00.953Z,4.70
2018-05-25T21:12:35.729Z,5.63
2018-05-25T21:15:10.595Z,4.93
2018-05-25T21:17:45.908Z,3.87
2018-05-25T21:20:20.675Z,5.10
2018-05-25T21:22:55.968Z,16.73
2018-05-25T21:25:30.591Z,25.67
2018-05-25T21:28:05.837Z,5.20
2018-05-25T21:30:40.549Z,7.53
2018-05-25T21:33:15.864Z,4.30
2018-05-25T21:35:51.224Z,5.03
2018-05-25T21:38:25.769Z,4.20
2018-05-25T21:41:01.005Z,4.40
2018-05-25T21:43:35.591Z,4.60
2018-05-25T21:46:10.623Z,4.75
2018-05-25T21:48:45.737Z,4.70
2018-05-25T21:51:20.616Z,4.07
2018-05-25T21:53:55.582Z,3.85
2018-05-25T21:56:30.631Z,4.73
2018-05-25T21:59:06.614Z,4.67
2018-05-25T22:01:41.609Z,4.57
2018-05-25T22:04:16.602Z,4.60
2018-05-25T22:06:51.142Z,4.10
2018-05-25T22:09:26.235Z,4.03
2018-05-25T22:12:01.854Z,4.00
2018-05-25T22:14:37.254Z,4.10
2018-05-25T22:17:11.893Z,3.97
2018-05-25T22:19:48.718Z,4.47
2018-05-25T22:22:23.141Z,4.10
2018-05-25T22:24:58.762Z,4.47
2018-05-25T22:27:33.892Z,4.77
2018-05-25T22:30:08.525Z,4.10
2018-05-25T22:32:44.774Z,4.50
2018-05-25T22:35:19.765Z,4.20
2018-05-25T22:37:54.845Z,4.20
2018-05-25T22:40:29.225Z,4.37
2018-05-25T22:43:15.934Z,4.00
2018-05-25T22:46:02.038Z,4.30
2018-05-25T22:48:47.878Z,4.40
2018-05-25T22:51:34.373Z,3.93
2018-05-25T22:54:14.125Z,4.33
2018-05-25T22:56:49.005Z,4.53
2018-05-25T22:59:23.982Z,4.20
2018-05-25T23:01:59.161Z,3.70
2018-05-25T23:04:33.745Z,3.70
2018-05-25T23:07:08.838Z,3.90
2018-05-25T23:09:45.121Z,3.95
2018-05-25T23:12:19.186Z,4.57
2018-05-25T23:14:54.169Z,3.80
2018-05-25T23:17:28.862Z,4.10
2018-05-25T23:20:03.623Z,4.27
2018-05-25T23:22:38.849Z,4.20
2018-05-25T23:25:14.197Z,4.70
2018-05-25T23:27:49.150Z,4.32
2018-05-25T23:30:24.454Z,3.97
2018-05-25T23:32:59.348Z,4.27
2018-05-25T23:35:34.897Z,4.83
2018-05-25T23:38:10.062Z,4.37
2018-05-25T23:40:45.294Z,4.20
2018-05-25T23:43:19.789Z,4.97
2018-05-25T23:45:54.718Z,4.05
2018-05-25T23:48:29.578Z,3.80
2018-05-25T23:51:04.055Z,4.20
2018-05-25T23:53:39.158Z,4.67
2018-05-25T23:56:14.021Z,3.90
2018-05-25T23:58:48.417Z,3.40
